Flight Track Log - Related Links

Times and Time Zones

All times are in EST time to prevent confusion due to time zone crossing. See the OPT438 flight status page for this flight to view local times or setup timezone preferences in your user account.

Time Position Orientation Groundspeed Altitude Reporting Facility
EST Latitude Longitude Course Direction KTS MPH feet Rate Location/Type
07:20AM 40.0414 -74.2583 180° South 242 278 5,700  Level Washington Center
07:21AM 39.9836 -74.3025 210° Southwest 247 284 6,300 1,373 Climbing Washington Center
07:22AM 39.9236 -74.3497 211° Southwest 247 284 8,400 2,016 Climbing Washington Center
07:23AM 39.7919 -74.4529 214° Southwest  Level FlightAware Approximate
07:23AM 39.8639 -74.3967 211° Southwest 247 284 10,400  Level Washington Center
07:24AM 39.7265 -74.5102 214° Southwest  Level FlightAware Approximate
07:24AM 39.8039 -74.4408 209° Southwest 247 284 12,300  Level Washington Center
07:25AM 39.6618 -74.5667 180° South  Level FlightAware Approximate
07:25AM 39.7439 -74.4850 210° Southwest 247 284 14,400  Level Washington Center
07:26AM 39.5829 -74.5667 180° South  Level FlightAware Approximate
07:26AM 39.6817 -74.5344 211° Southwest 253 291 16,400  Level Washington Center
07:27AM 39.6156 -74.5814 209° Southwest 263 303 18,300 1,918 Climbing Washington Center
07:28AM 39.5472 -74.6308 209° Southwest 268 308 20,300 1,785 Climbing Washington Center
07:29AM 39.4808 -74.6828 211° Southwest 278 320 21,900 864 Climbing Washington Center
07:30AM 39.4144 -74.7319 210° Southwest 278 320 22,000 50 Climbing Washington Center
07:31AM 39.3503 -74.7811 211° Southwest 278 320 22,000  Level Washington Center
07:32AM 39.2839 -74.8300 210° Southwest 273 314 22,000  Level Washington Center
07:33AM 39.2197 -74.8789 211° Southwest 273 314 22,000  Level Washington Center
07:34AM 39.1511 -74.9306 210° Southwest 273 314 22,000  Level Washington Center
07:35AM 39.0806 -74.9819 209° Southwest 285 328 22,000  Level Washington Center
07:36AM 39.0078 -75.0281 206° Southwest 292 336 22,000  Level Washington Center
07:37AM 38.9372 -75.0847 212° Southwest 292 336 22,000  Level Washington Center
07:38AM 38.8603 -75.1439 211° Southwest 292 336 22,000  Level Washington Center
07:39AM 38.7856 -75.1922 207° Southwest 292 336 22,000  Level Washington Center
07:40AM 38.7125 -75.2458 210° Southwest 297 342 22,000  Level Washington Center
07:41AM 38.6378 -75.3072 213° Southwest 304 350 22,000  Level Washington Center
07:42AM 38.5544 -75.3581 206° Southwest 325 374 22,000  Level Washington Center
07:43AM 38.4733 -75.4194 211° Southwest 337 388 22,000  Level Washington Center
07:44AM 38.3900 -75.4806 210° Southwest 337 388 22,000  Level Washington Center
07:45AM 38.3067 -75.5361 208° Southwest 342 394 22,000  Level Washington Center
07:46AM 38.2272 -75.5839 205° Southwest 347 399 22,000 -49 Level Washington Center
07:47AM 38.1397 -75.6367 205° Southwest 347 399 21,900 -908 Descending Washington Center
07:48AM 38.0542 -75.6894 206° Southwest 347 399 20,200 -1,831 Descending Washington Center
07:49AM 37.9625 -75.7497 207° Southwest 347 399 18,300 -1,736 Descending Washington Center
07:50AM 37.8811 -75.8022 207° Southwest 340 391 16,700 -1,670 Descending Washington Center
07:51AM 37.8331 -75.8336 207° Southwest 328 377 15,600 -1,667 Descending Washington Center
07:51AM 37.8081 -75.8467 202° Southwest 329 379 15,200 -1,000 Descending Washington Center
07:51AM 37.8036 -75.8442 156° South 340 391 15,200 -1,818 Level Washington Center
07:52AM 37.7161 -75.9042 208° Southwest 335 386 13,200 -1,850 Descending Washington Center
07:53AM 37.6386 -75.9486 204° Southwest 328 377 11,500 -1,714 Descending Washington Center
07:53AM 37.6344 -75.9511 205° Southwest 311 358 11,400 -1,377 Descending Washington Center
07:54AM 37.5553 -75.9769 195° South 316 364 10,100 -1,279 Descending Washington Center
07:55AM 37.5531 -75.9742 135° Southeast 307 353 10,100 -1,034 Level Washington Center
07:55AM 37.4800 -75.9844 186° South 296 341 9,100 -1,125 Descending Washington Center
07:56AM 37.4656 -75.9869 188° South 248 285 8,900 -1,100 Descending Washington Center
07:56AM 37.4133 -76.0050 195° South 270 311 8,000 -1,100 Descending Washington Center
07:57AM 37.4008 -76.0100 198° South 246 283 7,800 -968 Descending Washington Center
07:57AM 37.3486 -76.0308 198° South 251 289 7,000 -968 Descending Washington Center
07:58AM 37.3361 -76.0358 198° South 245 282 6,800 -1,138 Descending Washington Center
07:58AM 37.2839 -76.0564 197° South 251 289 5,900 -1,082 Descending Washington Center
07:59AM 37.2650 -76.0642 198° South 252 290 5,700 -885 Descending Washington Center
07:59AM 37.2169 -76.0822 197° South 251 289 5,000 -689 Descending Washington Center
08:00AM 37.2022 -76.0872 195° South 245 282 5,000  Level Washington Center
08:00AM 37.1500 -76.1078 197° South 251 289 5,000  Level Washington Center
08:01AM 37.1356 -76.1128 195° South 256 295 5,000  Level Washington Center
08:02AM 37.0686 -76.1386 197° South 249 287 5,000  Level Washington Center
08:03AM 37.0078 -76.1797 208° Southwest 225 259 5,000  Level Washington Center
08:04AM 36.9575 -76.2286 218° Southwest 225 259 5,000 -493 Level Washington Center
08:05AM 36.9008 -76.2828 217° Southwest 216 249 3,900 -1,160 Descending Washington Center
08:06AM 36.8592 -76.3058 204° Southwest 174 200 2,700 -1,200 Descending Washington Center
08:07AM 36.8447 -76.2589 111° Southeast 141 162 1,600 -1,016 Descending Washington Center
08:08AM 36.8719 -76.2281 42° Northeast 128 147 600 -984 Descending Washington Center

Login

Don't have an account? Register now (free) for customized features, flight alerts, and more!